UKOO/ODS METAR and TAF weather

Enter ICAO airport designator
Station Type Date Time Source
UKOO METAR 2019/02/16 07:00 UTC NOAA

UKOO 160700Z 29004MPS 9999 OVC023 03/00 Q1027 R34/090060 NOSIG


Station Type Date Time Source
UKOO Decoded METAR 2019/02/16 07:00 UTC NOAA

Odesa, Ukraine (UKOO) 46-26N 030-46E 42M
Feb 16, 2019 - 02:00 AM EST / 2019.02.16 0700 UTC
Wind: from the WNW (290 degrees) at 9 MPH (8 KT):0
Visibility: greater than 7 mile(s):0
Sky conditions: overcast
Temperature: 37 F (3 C)
Dew Point: 32 F (0 C)
Relative Humidity: 80%
Pressure (altimeter): 30.33 in. Hg (1027 hPa)
ob: UKOO 160700Z 29004MPS 9999 OVC023 03/00 Q1027 R34/090060 NOSIG
cycle: 7

Station Type Date Time Source
UKOO TAF 2019/02/16 06:15 UTC NOAA

TAF UKOO 160508Z 1606/1706 30005MPS 6000 BKN007 SCT016CB TX07/1612Z TN01/1705Z
BECMG 1616/1617 28003MPS 2100 BR


Example: see airport list